Time;durP1;ratioP1;P1;durP2;ratioP2;P2;SDS_P1;SDS_P2;PMS_P1;PMS_P2;Temp;Humidity;BMP_temperature;BMP_pressure;BME280_temperature;BME280_humidity;BME280_pressure;Samples;Min_cycle;Max_cycle;Signal;HPM_P1;HPM_P2
2021/07/24 00:01:12;;;;;;;12.20;9.25;;;19.70;92.40;;;;;;5057296;28;20048;-91
2021/07/24 00:03:46;;;;;;;12.90;8.40;;;19.70;92.40;;;;;;5057541;28;20049;-91
2021/07/24 00:06:32;;;;;;;12.05;8.80;;;19.70;92.40;;;;;;5057453;28;20034;-91
2021/07/24 00:09:04;;;;;;;12.30;9.20;;;19.70;92.60;;;;;;5057161;28;20408;-91
2021/07/24 00:11:57;;;;;;;17.17;9.07;;;19.60;92.70;;;;;;5057602;28;20041;-91
2021/07/24 00:14:24;;;;;;;11.40;9.23;;;19.60;92.90;;;;;;5038567;28;20037;-90
2021/07/24 00:16:49;;;;;;;14.55;8.75;;;19.50;93.00;;;;;;5064188;28;20124;-91
2021/07/24 00:19:15;;;;;;;10.85;9.00;;;19.50;93.10;;;;;;5059467;28;20127;-90
2021/07/24 00:21:44;;;;;;;12.52;8.85;;;19.40;93.10;;;;;;5058348;28;20044;-90
2021/07/24 00:24:18;;;;;;;13.80;9.40;;;19.40;93.20;;;;;;5057225;28;20377;-91
2021/07/24 00:27:01;;;;;;;15.48;9.23;;;19.40;93.10;;;;;;5056844;28;20072;-91
2021/07/24 00:29:38;;;;;;;;;;;19.40;93.10;;;;;;5056845;28;20196;-91
2021/07/24 00:32:56;;;;;;;14.07;9.95;;;19.40;93.10;;;;;;5029197;28;20000;-91
2021/07/24 00:36:11;;;;;;;12.10;9.27;;;19.30;93.30;;;;;;5056692;28;20305;-92
2021/07/24 00:38:46;;;;;;;13.32;8.90;;;19.30;93.50;;;;;;5039168;28;20188;-90
2021/07/24 00:41:38;;;;;;;13.15;9.27;;;19.20;93.80;;;;;;5056347;28;20456;-91
2021/07/24 00:48:02;;;;;;;13.60;9.57;;;19.20;93.80;;;;;;5037158;28;20049;-92
2021/07/24 00:53:54;;;;;;;16.95;9.80;;;19.10;93.90;;;;;;5040248;28;20117;-92
2021/07/24 01:01:10;;;;;;;;;;;;;;;;;;;;;
2021/07/24 01:13:59;;;;;;;16.77;9.70;;;18.90;94.40;;;;;;4979497;28;20046;-92
2021/07/24 01:17:10;;;;;;;14.30;9.82;;;18.80;94.50;;;;;;4969137;28;20441;-91
2021/07/24 01:19:36;;;;;;;13.38;10.05;;;18.80;94.50;;;;;;5028147;28;20270;-90
2021/07/24 01:22:11;;;;;;;14.40;9.68;;;18.80;94.70;;;;;;5039347;28;20033;-91
2021/07/24 01:24:39;;;;;;;15.15;9.70;;;18.80;94.70;;;;;;5057817;28;20100;-90
2021/07/24 01:27:16;;;;;;;15.57;9.70;;;18.70;94.70;;;;;;5046517;28;20482;-91
2021/07/24 01:29:58;;;;;;;18.80;10.10;;;18.70;94.80;;;;;;5056189;28;20037;-92
2021/07/24 01:32:42;;;;;;;12.43;9.75;;;18.70;94.80;;;;;;5039490;28;20041;-91
2021/07/24 01:35:21;;;;;;;13.70;9.85;;;18.70;95.00;;;;;;5055036;28;20416;-92
2021/07/24 01:37:59;;;;;;;13.55;10.13;;;18.60;95.00;;;;;;5055698;28;20053;-91
2021/07/24 01:40:46;;;;;;;13.52;9.75;;;18.60;95.00;;;;;;5038921;28;20275;-91
2021/07/24 01:43:12;;;;;;;15.43;10.98;;;18.50;95.00;;;;;;5055500;28;20085;-91
2021/07/24 01:45:53;;;;;;;13.90;9.90;;;18.50;95.10;;;;;;5038965;28;20111;-92
2021/07/24 01:48:30;;;;;;;13.52;10.40;;;18.50;95.10;;;;;;5054854;28;20029;-91
2021/07/24 01:57:29;;;;;;;14.43;10.85;;;18.40;95.20;;;;;;5041359;28;20053;-91
2021/07/24 02:00:12;;;;;;;11.88;8.57;;;18.40;95.30;;;;;;5039027;28;20041;-92
2021/07/24 02:02:43;;;;;;;15.57;10.57;;;18.40;95.30;;;;;;5055034;28;20041;-91
2021/07/24 02:05:38;;;;;;;12.43;10.05;;;18.30;95.30;;;;;;5038902;28;20084;-91
2021/07/24 02:08:06;;;;;;;13.45;10.10;;;18.30;95.30;;;;;;5038216;28;20045;-91
2021/07/24 02:10:36;;;;;;;12.18;9.63;;;18.30;95.60;;;;;;5054970;28;20377;-91
2021/07/24 02:13:02;;;;;;;16.60;9.27;;;18.20;95.30;;;;;;5056082;28;20408;-91
2021/07/24 02:15:27;;;;;;;12.68;9.90;;;18.30;95.30;;;;;;5055001;28;20394;-91
2021/07/24 02:18:43;;;;;;;13.43;10.10;;;18.20;95.50;;;;;;5055181;28;20037;-91
2021/07/24 02:21:21;;;;;;;11.93;8.52;;;18.20;95.40;;;;;;5038805;28;20038;-91
2021/07/24 02:23:58;;;;;;;13.50;10.20;;;18.10;95.50;;;;;;5066629;28;20040;-92
2021/07/24 02:26:33;;;;;;;17.80;9.60;;;18.10;95.50;;;;;;5054449;28;20038;-92
2021/07/24 02:29:16;;;;;;;12.30;8.75;;;18.10;95.50;;;;;;5058695;28;20124;-92
2021/07/24 02:31:49;;;;;;;;;;;18.10;95.50;;;;;;5069666;28;20022;-93
2021/07/24 02:34:15;;;;;;;13.77;9.27;;;18.00;95.40;;;;;;5043987;28;19913;-89
2021/07/24 02:36:50;;;;;;;14.63;9.32;;;18.00;95.60;;;;;;5055150;28;20044;-91
2021/07/24 02:39:37;;;;;;;;;;;;;;;;;;;;;
2021/07/24 02:42:22;;;;;;;;;;;;;;;;;;;;;
2021/07/24 02:45:07;;;;;;;15.35;9.15;;;17.90;95.80;;;;;;5045387;28;20084;-91
2021/07/24 02:47:35;;;;;;;14.18;10.38;;;17.90;95.80;;;;;;5070791;28;20041;-90
2021/07/24 02:50:21;;;;;;;14.07;10.23;;;17.90;96.00;;;;;;5046474;28;20033;-91
2021/07/24 02:53:27;;;;;;;13.73;9.30;;;17.80;96.20;;;;;;5039417;28;20041;-91
2021/07/24 02:55:58;;;;;;;13.60;9.38;;;17.80;95.90;;;;;;5055571;28;20041;-91
2021/07/24 02:58:55;;;;;;;11.68;9.60;;;17.80;96.10;;;;;;5055096;28;20037;-90
2021/07/24 03:02:03;;;;;;;;;;;;;;;;;;;;;
2021/07/24 03:05:11;;;;;;;13.60;9.63;;;17.70;96.10;;;;;;5042645;28;20043;-91
2021/07/24 03:11:18;;;;;;;18.02;9.70;;;17.60;96.10;;;;;;5056248;28;20048;-91
2021/07/24 03:14:13;;;;;;;16.98;10.05;;;17.60;96.10;;;;;;5046225;28;20064;-91
2021/07/24 03:16:55;;;;;;;13.38;9.88;;;17.60;96.10;;;;;;5033005;28;20041;-90
2021/07/24 03:20:12;;;;;;;12.30;8.67;;;17.60;96.20;;;;;;5058721;28;20039;-91
2021/07/24 03:22:40;;;;;;;11.55;8.60;;;17.50;96.20;;;;;;5057390;28;20033;-91
2021/07/24 03:25:32;;;;;;;16.40;10.40;;;17.50;96.20;;;;;;5056441;28;20065;-90
2021/07/24 03:28:08;;;;;;;12.75;9.82;;;17.50;96.30;;;;;;5038249;28;20045;-91
2021/07/24 03:30:52;;;;;;;;;;;;;;;;;;;;;
2021/07/24 03:44:24;;;;;;;14.15;8.73;;;17.40;96.40;;;;;;5047928;28;20121;-91
2021/07/24 03:57:24;;;;;;;10.70;8.77;;;17.40;96.60;;;;;;5040995;28;20045;-91
2021/07/24 04:00:37;;;;;;;;;;;;;;;;;;;;;
2021/07/24 04:03:41;;;;;;;17.02;9.90;;;17.40;96.80;;;;;;5039861;28;20040;-91
2021/07/24 04:06:44;;;;;;;11.60;9.00;;;17.40;96.90;;;;;;5039912;28;20033;-91
2021/07/24 04:09:33;;;;;;;10.82;8.45;;;17.40;96.90;;;;;;5047661;28;20080;-91
2021/07/24 04:12:55;;;;;;;13.07;8.77;;;17.40;96.90;;;;;;5055640;28;20040;-90
2021/07/24 04:15:27;;;;;;;10.35;8.02;;;17.40;96.80;;;;;;5040175;28;20033;-91
2021/07/24 04:18:14;;;;;;;13.70;8.93;;;17.40;96.70;;;;;;5057171;28;20069;-91
2021/07/24 04:21:29;;;;;;;11.50;8.80;;;17.50;96.70;;;;;;5064953;28;20056;-92
2021/07/24 04:24:18;;;;;;;12.35;8.23;;;17.50;96.80;;;;;;5044106;28;20048;-90
2021/07/24 04:30:07;;;;;;;9.95;8.02;;;17.50;96.90;;;;;;5045081;28;20112;-90
2021/07/24 04:32:57;;;;;;;10.07;7.78;;;17.60;96.90;;;;;;5054556;28;20033;-91
2021/07/24 04:35:31;;;;;;;12.02;7.90;;;17.60;96.80;;;;;;5056660;28;20034;-91
2021/07/24 04:38:02;;;;;;;10.82;7.65;;;17.60;96.80;;;;;;5056108;28;20041;-91
2021/07/24 04:43:52;;;;;;;9.65;7.13;;;17.70;96.80;;;;;;5038880;28;20048;-91
2021/07/24 04:47:13;;;;;;;10.55;7.75;;;17.80;96.70;;;;;;5037204;28;20050;-92
2021/07/24 04:50:22;;;;;;;13.30;7.40;;;17.80;96.60;;;;;;5036396;28;20049;-90
2021/07/24 04:52:55;;;;;;;8.98;6.63;;;17.80;96.40;;;;;;5056232;28;20037;-91
2021/07/24 04:58:31;;;;;;;9.90;7.80;;;17.90;96.30;;;;;;5040458;28;20104;-91
2021/07/24 05:02:08;;;;;;;;;;;;;;;;;;;;;
2021/07/24 05:04:51;;;;;;;8.52;6.90;;;18.10;96.30;;;;;;5045117;28;20121;-91
2021/07/24 05:07:35;;;;;;;10.00;7.45;;;18.10;96.20;;;;;;5055722;28;20411;-91
2021/07/24 05:13:28;;;;;;;10.88;8.00;;;18.20;96.00;;;;;;5040412;28;20270;-91
2021/07/24 05:16:34;;;;;;;10.52;7.15;;;18.30;95.90;;;;;;5057039;28;20041;-91
2021/07/24 05:19:39;;;;;;;14.18;8.25;;;18.30;95.80;;;;;;5055854;28;20123;-91
2021/07/24 05:41:52;;;;;;;13.70;9.27;;;18.80;95.40;;;;;;5040453;28;20124;-91
2021/07/24 05:47:33;;;;;;;12.13;9.63;;;19.00;95.00;;;;;;5038910;28;20416;-90
2021/07/24 05:50:33;;;;;;;15.95;10.13;;;19.00;95.10;;;;;;5055459;28;20044;-90
2021/07/24 05:52:59;;;;;;;17.02;11.13;;;19.10;94.90;;;;;;5037963;28;20033;-89
2021/07/24 05:56:18;;;;;;;;;;;;;;;;;;;;;
2021/07/24 05:59:42;;;;;;;13.70;9.85;;;19.30;94.70;;;;;;5039465;28;20034;-91
2021/07/24 06:02:32;;;;;;;;;;;19.40;94.70;;;;;;5038659;28;20040;-90
2021/07/24 06:05:53;;;;;;;15.77;9.85;;;19.50;94.50;;;;;;5038712;28;19913;-90
2021/07/24 06:09:13;;;;;;;;;;;;;;;;;;;;;
2021/07/24 06:11:46;;;;;;;15.57;11.02;;;19.60;94.80;;;;;;5046431;28;20081;-91
2021/07/24 06:14:19;;;;;;;16.08;11.40;;;19.70;94.70;;;;;;5050762;28;20064;-90
2021/07/24 06:16:47;;;;;;;14.30;10.90;;;19.80;94.40;;;;;;5039257;28;20364;-91
2021/07/24 06:19:48;;;;;;;18.52;11.50;;;19.90;94.10;;;;;;5038320;28;20381;-93
2021/07/24 06:32:11;;;;;;;16.52;11.43;;;20.20;93.90;;;;;;5035697;28;20033;-91
2021/07/24 06:35:04;;;;;;;;;;;20.30;94.00;;;;;;5040098;28;20041;-91
2021/07/24 06:40:51;;;;;;;18.42;11.70;;;20.50;93.40;;;;;;4974760;28;20102;-92
2021/07/24 06:43:37;;;;;;;21.58;12.02;;;20.60;93.40;;;;;;5039674;28;20308;-93
2021/07/24 06:53:12;;;;;;;21.50;12.93;;;21.00;92.60;;;;;;5041917;28;20301;-92
2021/07/24 07:13:01;;;;;;;18.55;11.70;;;21.60;92.00;;;;;;5001006;28;20030;-91
2021/07/24 07:16:17;;;;;;;17.40;10.85;;;21.80;91.70;;;;;;4994119;28;20037;-91
2021/07/24 07:19:47;;;;;;;20.15;11.07;;;21.90;91.40;;;;;;5061090;28;20356;-92
2021/07/24 07:22:52;;;;;;;;;;;;;;;;;;;;;
2021/07/24 07:26:20;;;;;;;19.45;12.50;;;22.30;90.50;;;;;;5042228;28;20047;-91
2021/07/24 07:29:02;;;;;;;16.45;11.35;;;22.40;90.70;;;;;;5036554;28;20377;-91
2021/07/24 07:41:45;;;;;;;17.33;11.90;;;23.00;90.50;;;;;;5019545;28;20042;-92
2021/07/24 07:44:30;;;;;;;20.95;11.88;;;23.20;90.50;;;;;;5012014;28;20046;-92
2021/07/24 07:47:09;;;;;;;22.55;12.65;;;23.30;88.60;;;;;;5040952;28;20042;-92
2021/07/24 07:49:48;;;;;;;22.27;12.25;;;23.50;88.70;;;;;;5042925;28;20048;-92
2021/07/24 07:52:28;;;;;;;19.20;12.05;;;23.60;88.10;;;;;;5054450;28;20271;-91
2021/07/24 07:58:23;;;;;;;27.20;14.38;;;23.80;88.30;;;;;;5041014;28;20048;-93
2021/07/24 08:08:07;;;;;;;13.88;10.82;;;24.30;85.10;;;;;;4999718;28;20096;-92
2021/07/24 08:10:46;;;;;;;14.90;10.40;;;24.50;85.50;;;;;;4984037;28;20137;-93
2021/07/24 08:13:18;;;;;;;16.17;11.48;;;24.60;85.70;;;;;;5003076;28;20065;-92
2021/07/24 08:16:02;;;;;;;14.45;11.05;;;24.70;85.60;;;;;;5003563;28;20180;-92
2021/07/24 08:18:30;;;;;;;19.00;11.10;;;24.90;83.80;;;;;;5035778;28;20040;-92
2021/07/24 08:21:07;;;;;;;14.32;10.23;;;25.10;83.20;;;;;;5040285;28;20156;-92
2021/07/24 08:24:30;;;;;;;15.40;10.90;;;25.10;83.60;;;;;;5040594;28;20037;-92
2021/07/24 08:26:56;;;;;;;14.63;10.80;;;25.30;83.90;;;;;;5047830;28;20192;-92
2021/07/24 08:29:38;;;;;;;13.00;9.23;;;25.40;84.00;;;;;;5052383;28;20302;-92
2021/07/24 08:32:08;;;;;;;13.90;10.68;;;25.50;82.30;;;;;;5057594;28;20033;-89
2021/07/24 08:34:34;;;;;;;13.60;9.52;;;25.60;81.40;;;;;;5040508;28;20033;-91
2021/07/24 08:36:59;;;;;;;13.88;9.57;;;25.70;81.20;;;;;;5056547;28;20037;-91
2021/07/24 08:39:35;;;;;;;16.83;10.10;;;25.90;81.60;;;;;;5056450;28;20060;-91
2021/07/24 08:42:09;;;;;;;13.18;10.40;;;26.00;80.70;;;;;;5039420;28;20033;-91
2021/07/24 08:45:07;;;;;;;12.32;9.70;;;26.20;80.30;;;;;;5039928;28;20095;-92
2021/07/24 08:48:28;;;;;;;12.60;10.07;;;26.30;79.40;;;;;;5056513;28;20040;-92
2021/07/24 08:50:55;;;;;;;11.00;9.23;;;26.50;78.60;;;;;;5039984;28;20040;-91
2021/07/24 08:53:25;;;;;;;12.98;9.63;;;26.60;80.50;;;;;;5056201;28;20047;-92
2021/07/24 08:56:13;;;;;;;14.20;10.02;;;26.70;80.90;;;;;;5056126;28;20049;-91
2021/07/24 08:58:45;;;;;;;13.38;9.93;;;26.80;81.50;;;;;;5038697;28;20048;-92
2021/07/24 09:01:18;;;;;;;13.45;10.25;;;26.90;79.50;;;;;;5057659;28;20045;-92
2021/07/24 09:03:48;;;;;;;12.80;9.30;;;27.10;80.50;;;;;;5058131;28;20088;-93
2021/07/24 09:06:22;;;;;;;11.82;8.80;;;27.20;78.50;;;;;;5065576;28;20041;-91
2021/07/24 09:08:53;;;;;;;12.13;8.82;;;27.30;77.10;;;;;;5055607;28;20739;-90
2021/07/24 09:11:21;;;;;;;14.27;8.90;;;27.40;77.80;;;;;;5056747;28;20106;-92
2021/07/24 09:13:54;;;;;;;13.65;9.93;;;27.40;77.30;;;;;;5056135;28;20509;-92
2021/07/24 09:16:21;;;;;;;14.07;10.60;;;27.40;78.40;;;;;;5055908;28;20033;-92
2021/07/24 09:18:51;;;;;;;13.02;9.82;;;27.50;79.10;;;;;;5039650;28;20296;-91
2021/07/24 09:21:18;;;;;;;14.57;10.43;;;27.50;79.00;;;;;;5055447;28;20045;-92
2021/07/24 09:23:47;;;;;;;13.75;9.40;;;27.70;76.00;;;;;;5039422;28;20108;-92
2021/07/24 09:26:34;;;;;;;12.25;9.88;;;27.80;75.10;;;;;;5055805;28;20039;-92
2021/07/24 09:29:20;;;;;;;12.10;9.52;;;27.80;76.00;;;;;;5055754;28;20037;-92
2021/07/24 09:31:48;;;;;;;12.90;10.43;;;27.90;77.70;;;;;;5057763;28;20037;-90
2021/07/24 09:34:22;;;;;;;11.70;9.00;;;28.00;75.50;;;;;;5038956;28;20037;-92
2021/07/24 09:37:03;;;;;;;12.85;9.32;;;28.10;77.00;;;;;;5055204;28;20115;-92
2021/07/24 09:39:31;;;;;;;13.10;9.77;;;28.20;77.20;;;;;;5055598;28;20123;-92
2021/07/24 09:42:19;;;;;;;12.23;9.15;;;28.40;77.30;;;;;;5067072;28;20041;-90
2021/07/24 09:44:45;;;;;;;11.02;8.27;;;28.50;74.00;;;;;;5057827;28;20049;-91
2021/07/24 09:47:29;;;;;;;11.73;9.13;;;28.60;75.10;;;;;;5055619;28;20033;-91
2021/07/24 09:50:33;;;;;;;12.25;8.57;;;28.70;73.00;;;;;;5055574;28;20305;-89
2021/07/24 09:53:01;;;;;;;12.35;8.90;;;28.80;72.70;;;;;;5054398;28;20368;-91
2021/07/24 09:55:36;;;;;;;10.38;8.60;;;28.90;75.40;;;;;;5054853;28;20045;-92
2021/07/24 09:58:02;;;;;;;11.32;9.10;;;29.00;72.70;;;;;;5054328;28;20033;-91
2021/07/24 10:00:38;;;;;;;11.30;9.02;;;29.20;75.60;;;;;;5055420;28;20114;-92
2021/07/24 10:03:08;;;;;;;10.88;7.93;;;29.30;74.00;;;;;;5056251;28;20068;-92
2021/07/24 10:05:45;;;;;;;10.10;8.00;;;29.40;73.00;;;;;;5071891;28;20056;-92
2021/07/24 10:08:14;;;;;;;12.23;8.60;;;29.60;72.50;;;;;;5071084;28;20029;-91
2021/07/24 10:11:12;;;;;;;10.77;8.30;;;29.80;72.30;;;;;;5059380;28;20037;-93
2021/07/24 10:14:00;;;;;;;14.82;8.75;;;29.90;70.60;;;;;;5057492;28;20049;-93
2021/07/24 10:16:26;;;;;;;10.75;8.32;;;30.00;71.50;;;;;;5056616;28;20040;-91
2021/07/24 10:18:58;;;;;;;9.80;8.35;;;30.10;71.20;;;;;;5055474;28;20041;-93
2021/07/24 10:21:24;;;;;;;10.05;8.10;;;30.20;73.80;;;;;;5055073;28;20049;-92
2021/07/24 10:28:06;;;;;;;;;;;;;;;;;;;;;
2021/07/24 10:51:57;;;;;;;8.52;6.63;;;31.60;61.70;;;;;;4846023;29;20093;-93
2021/07/24 10:55:16;;;;;;;9.77;6.72;;;31.70;60.50;;;;;;4911232;29;20029;-94
2021/07/24 10:57:45;;;;;;;10.05;6.97;;;31.80;62.60;;;;;;4977024;28;20064;-93
2021/07/24 11:03:37;;;;;;;10.07;7.50;;;32.00;64.00;;;;;;5027782;28;20061;-93
2021/07/24 11:07:07;;;;;;;12.48;7.10;;;32.10;61.30;;;;;;5054089;28;20029;-93
2021/07/24 11:16:42;;;;;;;12.02;7.97;;;32.20;59.70;;;;;;5029519;28;20053;-92
2021/07/24 11:19:26;;;;;;;12.60;7.80;;;32.30;63.10;;;;;;5053581;28;20048;-92
2021/07/24 11:22:17;;;;;;;8.05;6.72;;;32.30;64.50;;;;;;5054133;28;20041;-92
2021/07/24 11:25:39;;;;;;;;;;;;;;;;;;;;;
2021/07/24 11:28:08;;;;;;;8.07;6.57;;;32.50;63.30;;;;;;5042176;28;20025;-93
2021/07/24 11:30:34;;;;;;;6.40;5.80;;;32.70;62.10;;;;;;5070937;28;20034;-91
2021/07/24 11:33:00;;;;;;;7.22;5.85;;;32.90;61.10;;;;;;5062283;28;20555;-92
2021/07/24 11:35:39;;;;;;;8.85;5.78;;;33.00;55.70;;;;;;5057767;28;20037;-93
2021/07/24 11:38:19;;;;;;;6.85;5.60;;;33.10;54.90;;;;;;5057266;28;20301;-92
2021/07/24 11:40:58;;;;;;;7.13;5.45;;;33.10;53.60;;;;;;5057308;28;20037;-91
2021/07/24 11:47:23;;;;;;;9.20;6.30;;;33.20;56.20;;;;;;5025503;28;20037;-91
2021/07/24 11:49:51;;;;;;;8.30;5.78;;;33.40;54.40;;;;;;5035111;28;20041;-92
2021/07/24 11:52:32;;;;;;;6.97;5.85;;;33.40;53.00;;;;;;5056923;28;20042;-92
2021/07/24 11:55:27;;;;;;;7.43;5.28;;;33.40;57.20;;;;;;5056791;28;20073;-93
2021/07/24 11:58:14;;;;;;;8.15;5.90;;;33.40;54.60;;;;;;5056716;28;20270;-93
2021/07/24 12:01:10;;;;;;;;;;;;;;;;;;;;;
2021/07/24 12:03:37;;;;;;;7.60;5.85;;;33.40;57.10;;;;;;5040414;28;20041;-90
2021/07/24 12:06:11;;;;;;;6.70;6.00;;;33.40;56.00;;;;;;5056944;28;20042;-91
2021/07/24 12:08:42;;;;;;;11.75;6.13;;;33.50;55.30;;;;;;5056427;28;20450;-91
2021/07/24 12:11:24;;;;;;;7.55;5.95;;;33.60;51.90;;;;;;5056574;28;20060;-92
2021/07/24 12:14:04;;;;;;;8.00;5.97;;;33.70;55.20;;;;;;5056720;28;20053;-91
2021/07/24 12:16:43;;;;;;;6.38;5.55;;;33.80;56.40;;;;;;5055986;28;20042;-92
2021/07/24 12:19:16;;;;;;;7.85;5.30;;;33.90;52.00;;;;;;5056403;28;20033;-91
2021/07/24 12:21:43;;;;;;;7.30;6.10;;;33.90;52.70;;;;;;5056935;28;20038;-91
2021/07/24 12:24:22;;;;;;;6.50;5.15;;;33.90;54.20;;;;;;5070193;28;20033;-92
2021/07/24 12:26:48;;;;;;;9.43;6.13;;;34.00;51.70;;;;;;5061557;28;20099;-90
2021/07/24 12:29:19;;;;;;;8.90;5.97;;;34.10;51.90;;;;;;5056143;28;20041;-93
2021/07/24 12:31:59;;;;;;;10.50;6.53;;;34.10;52.50;;;;;;5055906;28;20044;-92
2021/07/24 12:34:39;;;;;;;8.23;6.10;;;34.20;52.10;;;;;;5055716;28;20049;-92
2021/07/24 12:37:04;;;;;;;7.88;5.80;;;34.20;52.80;;;;;;5055380;28;20409;-90
2021/07/24 12:39:37;;;;;;;8.07;6.05;;;34.20;50.90;;;;;;5055781;28;20045;-91
2021/07/24 12:42:07;;;;;;;6.65;5.07;;;34.20;51.10;;;;;;5055864;28;20384;-92
2021/07/24 12:44:52;;;;;;;6.93;5.38;;;34.20;49.00;;;;;;5055151;28;20053;-89
2021/07/24 12:47:19;;;;;;;6.32;5.47;;;34.30;50.50;;;;;;5055389;28;20037;-90
2021/07/24 12:49:53;;;;;;;7.90;5.88;;;34.40;50.90;;;;;;5055632;28;20095;-89
2021/07/24 12:52:50;;;;;;;9.40;5.15;;;34.40;53.50;;;;;;5055936;28;20122;-91
2021/07/24 12:55:26;;;;;;;7.43;5.53;;;34.60;53.50;;;;;;5039428;28;20033;-91
2021/07/24 12:58:00;;;;;;;5.47;4.72;;;34.70;50.70;;;;;;5055834;28;20099;-91
2021/07/24 13:00:35;;;;;;;8.02;5.53;;;34.80;50.70;;;;;;5060524;28;20045;-90
2021/07/24 13:03:01;;;;;;;8.35;5.47;;;34.90;50.60;;;;;;5058143;28;20045;-90
2021/07/24 13:05:27;;;;;;;6.75;5.70;;;35.00;48.60;;;;;;5039294;28;20305;-89
2021/07/24 13:07:53;;;;;;;7.65;5.88;;;35.00;48.00;;;;;;5055381;28;20045;-91
2021/07/24 13:10:26;;;;;;;7.25;5.85;;;35.00;47.20;;;;;;5055342;28;20037;-91
2021/07/24 13:13:15;;;;;;;7.55;6.28;;;34.90;48.80;;;;;;5055784;28;20037;-91
2021/07/24 13:15:44;;;;;;;8.60;5.28;;;34.90;48.40;;;;;;5057742;28;20042;-91
2021/07/24 13:18:18;;;;;;;7.85;5.88;;;34.90;49.70;;;;;;5058066;28;20064;-90
2021/07/24 13:20:43;;;;;;;8.50;5.90;;;34.90;49.00;;;;;;5055241;28;20048;-90
2021/07/24 13:23:09;;;;;;;8.73;5.38;;;34.80;48.20;;;;;;5055268;28;20041;-90
2021/07/24 13:28:18;;;;;;;8.25;6.50;;;34.80;50.50;;;;;;5039736;28;20113;-91
2021/07/24 13:30:53;;;;;;;7.88;6.18;;;34.80;51.00;;;;;;5055026;28;20044;-90
2021/07/24 13:33:26;;;;;;;7.70;6.85;;;34.80;51.00;;;;;;5055461;28;20061;-91
2021/07/24 13:35:55;;;;;;;6.35;5.40;;;34.80;50.60;;;;;;5069901;28;20060;-92
2021/07/24 13:38:21;;;;;;;7.28;5.90;;;34.80;48.10;;;;;;5056262;28;20037;-90
2021/07/24 13:40:46;;;;;;;7.25;5.75;;;34.80;47.80;;;;;;5054715;28;20114;-90
2021/07/24 13:43:12;;;;;;;7.70;5.63;;;34.70;48.00;;;;;;5046205;28;20110;-89
2021/07/24 13:45:37;;;;;;;7.15;5.65;;;34.70;50.80;;;;;;5047949;28;20045;-90
2021/07/24 13:48:03;;;;;;;7.93;6.50;;;34.80;48.00;;;;;;5058896;28;20044;-91
2021/07/24 13:50:29;;;;;;;6.55;5.38;;;34.80;49.70;;;;;;5055077;28;20037;-89
2021/07/24 13:52:54;;;;;;;6.72;5.45;;;34.90;50.30;;;;;;5054769;28;20126;-89
2021/07/24 13:55:20;;;;;;;6.57;5.78;;;35.00;48.10;;;;;;5054320;28;20037;-90
2021/07/24 13:57:51;;;;;;;6.88;5.57;;;35.10;48.10;;;;;;5054064;28;20055;-92
2021/07/24 14:00:17;;;;;;;13.47;6.47;;;35.10;51.80;;;;;;5054195;28;20409;-89
2021/07/24 14:02:42;;;;;;;7.35;5.90;;;35.10;51.70;;;;;;5054019;28;20037;-89
2021/07/24 14:05:08;;;;;;;8.10;6.05;;;35.00;49.80;;;;;;5053519;28;20124;-88
2021/07/24 14:07:37;;;;;;;9.20;6.55;;;34.90;48.50;;;;;;5054205;28;20045;-89
2021/07/24 14:10:05;;;;;;;6.75;6.05;;;34.90;52.10;;;;;;5054492;28;20072;-90
2021/07/24 14:12:30;;;;;;;6.65;5.03;;;34.80;49.80;;;;;;5068241;28;20029;-91
2021/07/24 14:14:56;;;;;;;5.95;5.05;;;34.80;47.90;;;;;;5062747;28;20046;-91
2021/07/24 14:17:33;;;;;;;9.45;6.07;;;34.80;48.80;;;;;;5054679;28;20029;-90
2021/07/24 14:19:59;;;;;;;9.48;5.35;;;34.80;49.60;;;;;;5053855;28;20033;-89
2021/07/24 14:22:24;;;;;;;7.90;5.65;;;34.90;48.80;;;;;;5053593;28;20044;-90
2021/07/24 14:24:50;;;;;;;5.13;4.25;;;34.90;49.10;;;;;;5053797;28;20400;-90
2021/07/24 14:27:18;;;;;;;6.80;5.38;;;34.90;50.60;;;;;;5053369;28;20029;-91
2021/07/24 14:29:44;;;;;;;6.95;5.22;;;34.90;48.90;;;;;;5054213;28;20107;-90
2021/07/24 14:32:11;;;;;;;6.88;5.07;;;34.80;50.50;;;;;;5053239;28;20420;-90
2021/07/24 14:34:37;;;;;;;10.40;6.22;;;34.60;50.70;;;;;;5053804;28;20128;-90
2021/07/24 14:37:03;;;;;;;6.65;5.47;;;34.50;51.90;;;;;;5054132;28;20391;-90
2021/07/24 14:39:29;;;;;;;6.10;5.22;;;34.50;53.80;;;;;;5054063;28;20080;-89
2021/07/24 14:41:56;;;;;;;8.45;5.70;;;34.40;51.30;;;;;;5055209;28;20128;-90
2021/07/24 14:44:23;;;;;;;7.90;5.30;;;34.40;50.90;;;;;;5054492;28;20041;-90
2021/07/24 14:46:49;;;;;;;8.07;5.20;;;34.30;50.50;;;;;;5054753;28;20037;-90
2021/07/24 14:49:14;;;;;;;7.32;5.65;;;34.30;50.90;;;;;;5066915;28;20030;-90
2021/07/24 14:51:41;;;;;;;7.40;5.70;;;34.10;51.50;;;;;;5062500;28;20049;-89
2021/07/24 14:54:06;;;;;;;8.10;5.57;;;34.10;52.20;;;;;;5038050;28;20033;-89
2021/07/24 14:56:32;;;;;;;7.05;6.07;;;33.90;51.90;;;;;;5054398;28;20156;-89
2021/07/24 14:58:57;;;;;;;10.57;6.20;;;33.70;53.10;;;;;;5056565;28;20043;-89
2021/07/24 15:01:23;;;;;;;7.80;5.85;;;33.50;52.50;;;;;;5057156;28;20409;-89
2021/07/24 15:03:49;;;;;;;6.78;5.32;;;33.30;52.20;;;;;;5056818;28;20053;-89
2021/07/24 15:06:15;;;;;;;8.98;5.40;;;33.20;51.80;;;;;;5057332;28;20034;-89
2021/07/24 15:08:41;;;;;;;6.65;5.07;;;33.00;49.40;;;;;;5057927;28;20290;-90
2021/07/24 15:11:12;;;;;;;5.97;4.80;;;32.90;50.50;;;;;;5057738;28;20044;-90
2021/07/24 15:13:39;;;;;;;8.00;6.35;;;32.80;50.10;;;;;;5057676;28;20041;-90
2021/07/24 15:16:07;;;;;;;5.82;5.22;;;32.70;50.70;;;;;;5057829;28;20102;-91
2021/07/24 15:18:33;;;;;;;8.60;5.38;;;32.60;52.70;;;;;;5057670;28;20041;-90
2021/07/24 15:20:59;;;;;;;9.18;6.28;;;32.50;53.20;;;;;;5057563;28;20045;-90
2021/07/24 15:23:24;;;;;;;10.18;5.72;;;32.40;53.40;;;;;;5063878;28;20028;-90
2021/07/24 15:25:50;;;;;;;8.68;6.28;;;32.40;53.30;;;;;;5068592;28;20049;-89
2021/07/24 15:28:16;;;;;;;8.55;5.88;;;32.40;53.70;;;;;;5057241;28;20069;-90
2021/07/24 15:30:41;;;;;;;7.70;5.88;;;32.30;53.80;;;;;;5057053;28;20291;-89
2021/07/24 15:33:08;;;;;;;9.15;6.18;;;32.30;54.80;;;;;;5056878;28;20060;-89
2021/07/24 15:35:34;;;;;;;7.10;5.43;;;32.20;52.90;;;;;;5056982;28;20037;-90
2021/07/24 15:38:00;;;;;;;8.02;5.78;;;32.10;52.40;;;;;;5056544;28;20095;-89
2021/07/24 15:40:26;;;;;;;7.28;5.68;;;32.00;52.60;;;;;;5057205;28;20077;-89
2021/07/24 15:42:51;;;;;;;7.15;5.75;;;31.90;54.00;;;;;;5056831;28;20060;-89
2021/07/24 15:45:19;;;;;;;8.43;6.30;;;31.80;52.90;;;;;;5056805;28;20137;-90
2021/07/24 15:47:45;;;;;;;8.43;6.30;;;31.70;53.70;;;;;;5056948;28;20312;-89
2021/07/24 15:50:11;;;;;;;6.95;5.55;;;31.50;53.80;;;;;;5059028;28;20179;-90
2021/07/24 15:52:37;;;;;;;13.30;7.95;;;31.40;52.50;;;;;;5041665;28;20037;-89
2021/07/24 15:55:03;;;;;;;14.70;9.13;;;31.30;53.30;;;;;;5057999;28;20140;-89
2021/07/24 15:57:28;;;;;;;17.08;11.40;;;31.20;53.30;;;;;;5056855;28;20104;-89
2021/07/24 15:59:55;;;;;;;16.08;9.90;;;31.20;54.40;;;;;;5040303;28;20095;-90
2021/07/24 16:02:22;;;;;;;15.77;11.55;;;31.10;54.70;;;;;;5057479;28;20463;-90
2021/07/24 16:04:47;;;;;;;11.75;8.57;;;31.10;54.30;;;;;;5040610;28;20049;-90
2021/07/24 16:07:13;;;;;;;20.85;14.98;;;31.00;53.40;;;;;;5058448;28;20033;-90
2021/07/24 16:09:38;;;;;;;20.73;15.30;;;30.90;55.50;;;;;;5041739;28;20116;-88
2021/07/24 16:12:05;;;;;;;14.52;10.50;;;30.90;55.80;;;;;;5045053;28;20136;-91
2021/07/24 16:14:35;;;;;;;12.13;9.45;;;30.80;55.70;;;;;;5041747;28;20045;-91
2021/07/24 16:17:05;;;;;;;16.40;11.70;;;30.70;55.00;;;;;;5057149;28;20037;-90
2021/07/24 16:19:48;;;;;;;21.27;13.23;;;30.70;55.30;;;;;;5039802;28;20419;-90
2021/07/24 16:22:14;;;;;;;13.98;10.73;;;30.60;55.50;;;;;;5040491;28;20056;-90
2021/07/24 16:24:39;;;;;;;12.55;9.23;;;30.60;55.70;;;;;;5050611;28;20037;-89
2021/07/24 16:27:05;;;;;;;15.23;11.38;;;30.50;55.00;;;;;;5063592;28;20037;-89
2021/07/24 16:29:31;;;;;;;15.88;9.48;;;30.40;55.70;;;;;;5040380;28;20120;-89
2021/07/24 16:31:56;;;;;;;10.00;7.22;;;30.40;56.90;;;;;;5056420;28;20407;-91
2021/07/24 16:34:22;;;;;;;11.50;8.00;;;30.40;55.80;;;;;;5056219;28;20038;-90
2021/07/24 16:36:48;;;;;;;8.07;6.22;;;30.30;56.70;;;;;;5056990;28;20122;-91
2021/07/24 16:39:14;;;;;;;10.02;6.97;;;30.30;57.00;;;;;;5071095;28;20021;-92
2021/07/24 16:41:40;;;;;;;9.38;7.15;;;30.30;58.50;;;;;;5066202;28;20073;-90
2021/07/24 16:44:07;;;;;;;10.55;6.63;;;30.20;55.90;;;;;;5057171;28;20048;-91
2021/07/24 16:46:33;;;;;;;9.55;6.80;;;30.20;56.90;;;;;;5056254;28;20118;-91
2021/07/24 16:48:59;;;;;;;9.25;6.93;;;30.20;56.20;;;;;;5056152;28;20041;-91
2021/07/24 16:51:24;;;;;;;9.25;6.05;;;30.20;56.40;;;;;;5056110;28;20037;-92
2021/07/24 16:53:50;;;;;;;15.05;7.28;;;30.10;55.90;;;;;;5055948;28;20037;-90
2021/07/24 16:56:16;;;;;;;9.55;6.50;;;30.10;57.80;;;;;;5055818;28;20044;-90
2021/07/24 16:58:42;;;;;;;7.53;5.93;;;30.00;58.60;;;;;;5055708;28;20069;-91